sensor_id;sensor_type;location;lat;lon;timestamp;temperature;humidity
16781;DHT22;8507;50.056;8.248;2022-08-21T00:00:18;20.10;99.90
16781;DHT22;8507;50.056;8.248;2022-08-21T00:02:53;20.00;99.90
16781;DHT22;8507;50.056;8.248;2022-08-21T00:05:20;19.80;99.90
16781;DHT22;8507;50.056;8.248;2022-08-21T00:07:46;19.70;99.90
16781;DHT22;8507;50.056;8.248;2022-08-21T00:10:12;19.60;99.90
16781;DHT22;8507;50.056;8.248;2022-08-21T00:12:38;19.40;99.90
16781;DHT22;8507;50.056;8.248;2022-08-21T00:15:06;19.30;99.90
16781;DHT22;8507;50.056;8.248;2022-08-21T00:17:32;19.40;99.90
16781;DHT22;8507;50.056;8.248;2022-08-21T00:19:57;19.40;99.90
16781;DHT22;8507;50.056;8.248;2022-08-21T00:22:23;19.40;99.90
16781;DHT22;8507;50.056;8.248;2022-08-21T00:24:48;19.40;99.90
16781;DHT22;8507;50.056;8.248;2022-08-21T00:27:15;19.40;99.90
16781;DHT22;8507;50.056;8.248;2022-08-21T00:29:40;19.40;99.90
16781;DHT22;8507;50.056;8.248;2022-08-21T00:32:06;19.40;99.90
16781;DHT22;8507;50.056;8.248;2022-08-21T00:34:32;19.40;99.90
16781;DHT22;8507;50.056;8.248;2022-08-21T00:36:58;19.50;99.90
16781;DHT22;8507;50.056;8.248;2022-08-21T00:39:23;19.60;99.90
16781;DHT22;8507;50.056;8.248;2022-08-21T00:41:49;19.60;99.90
16781;DHT22;8507;50.056;8.248;2022-08-21T00:44:15;19.60;99.90
16781;DHT22;8507;50.056;8.248;2022-08-21T00:46:42;19.60;99.90
16781;DHT22;8507;50.056;8.248;2022-08-21T00:49:08;19.50;99.90
16781;DHT22;8507;50.056;8.248;2022-08-21T00:51:47;19.40;99.90
16781;DHT22;8507;50.056;8.248;2022-08-21T00:54:15;19.30;99.90
16781;DHT22;8507;50.056;8.248;2022-08-21T00:56:41;19.20;99.90
16781;DHT22;8507;50.056;8.248;2022-08-21T00:59:07;19.10;99.90
16781;DHT22;8507;50.056;8.248;2022-08-21T01:01:33;18.90;99.90
16781;DHT22;8507;50.056;8.248;2022-08-21T01:03:59;18.80;99.90
16781;DHT22;8507;50.056;8.248;2022-08-21T01:06:24;18.70;99.90
16781;DHT22;8507;50.056;8.248;2022-08-21T01:08:50;18.70;99.90
16781;DHT22;8507;50.056;8.248;2022-08-21T01:11:16;18.70;99.90
16781;DHT22;8507;50.056;8.248;2022-08-21T01:13:42;18.70;99.90
16781;DHT22;8507;50.056;8.248;2022-08-21T01:16:15;18.60;99.90
16781;DHT22;8507;50.056;8.248;2022-08-21T01:18:41;18.60;99.90
16781;DHT22;8507;50.056;8.248;2022-08-21T01:21:14;18.60;99.90
16781;DHT22;8507;50.056;8.248;2022-08-21T01:23:42;18.50;99.90
16781;DHT22;8507;50.056;8.248;2022-08-21T01:26:09;18.60;99.90
16781;DHT22;8507;50.056;8.248;2022-08-21T01:28:40;18.60;99.90
16781;DHT22;8507;50.056;8.248;2022-08-21T01:31:08;18.50;99.90
16781;DHT22;8507;50.056;8.248;2022-08-21T01:33:35;18.50;99.90
16781;DHT22;8507;50.056;8.248;2022-08-21T01:36:01;18.50;99.90
16781;DHT22;8507;50.056;8.248;2022-08-21T01:38:27;18.50;99.90
16781;DHT22;8507;50.056;8.248;2022-08-21T01:40:52;18.50;99.90
16781;DHT22;8507;50.056;8.248;2022-08-21T01:43:18;18.40;99.90
16781;DHT22;8507;50.056;8.248;2022-08-21T01:45:43;18.40;99.90
16781;DHT22;8507;50.056;8.248;2022-08-21T01:48:09;18.50;99.90
16781;DHT22;8507;50.056;8.248;2022-08-21T01:50:34;18.50;99.90
16781;DHT22;8507;50.056;8.248;2022-08-21T01:53:00;18.50;99.90
16781;DHT22;8507;50.056;8.248;2022-08-21T01:55:26;18.40;99.90
16781;DHT22;8507;50.056;8.248;2022-08-21T01:57:52;18.40;99.90
16781;DHT22;8507;50.056;8.248;2022-08-21T02:00:20;18.40;99.90
16781;DHT22;8507;50.056;8.248;2022-08-21T02:02:51;18.40;99.90
16781;DHT22;8507;50.056;8.248;2022-08-21T02:05:17;18.40;99.90
16781;DHT22;8507;50.056;8.248;2022-08-21T02:07:47;18.40;99.90
16781;DHT22;8507;50.056;8.248;2022-08-21T02:10:16;18.40;99.90
16781;DHT22;8507;50.056;8.248;2022-08-21T02:12:42;18.40;99.90
16781;DHT22;8507;50.056;8.248;2022-08-21T02:15:08;18.40;99.90
16781;DHT22;8507;50.056;8.248;2022-08-21T02:17:46;18.40;99.90
16781;DHT22;8507;50.056;8.248;2022-08-21T02:20:27;18.30;99.90
16781;DHT22;8507;50.056;8.248;2022-08-21T02:22:53;18.30;99.90
16781;DHT22;8507;50.056;8.248;2022-08-21T02:25:21;18.30;99.90
16781;DHT22;8507;50.056;8.248;2022-08-21T02:27:47;18.30;99.90
16781;DHT22;8507;50.056;8.248;2022-08-21T02:30:21;18.30;99.90
16781;DHT22;8507;50.056;8.248;2022-08-21T02:32:47;18.30;99.90
16781;DHT22;8507;50.056;8.248;2022-08-21T02:35:13;18.30;99.90
16781;DHT22;8507;50.056;8.248;2022-08-21T02:38:00;18.30;99.90
16781;DHT22;8507;50.056;8.248;2022-08-21T02:40:31;18.30;99.90
16781;DHT22;8507;50.056;8.248;2022-08-21T02:42:58;18.30;99.90
16781;DHT22;8507;50.056;8.248;2022-08-21T02:45:24;18.30;99.90
16781;DHT22;8507;50.056;8.248;2022-08-21T02:47:51;18.30;99.90
16781;DHT22;8507;50.056;8.248;2022-08-21T02:50:20;18.30;99.90
16781;DHT22;8507;50.056;8.248;2022-08-21T02:52:46;18.30;99.90
16781;DHT22;8507;50.056;8.248;2022-08-21T02:55:12;18.20;99.90
16781;DHT22;8507;50.056;8.248;2022-08-21T02:57:38;18.20;99.90
16781;DHT22;8507;50.056;8.248;2022-08-21T03:00:05;18.20;99.90
16781;DHT22;8507;50.056;8.248;2022-08-21T03:02:31;18.20;99.90
16781;DHT22;8507;50.056;8.248;2022-08-21T03:04:56;18.30;99.90
16781;DHT22;8507;50.056;8.248;2022-08-21T03:07:22;18.20;99.90
16781;DHT22;8507;50.056;8.248;2022-08-21T03:09:47;18.10;99.90
16781;DHT22;8507;50.056;8.248;2022-08-21T03:12:13;18.10;99.90
16781;DHT22;8507;50.056;8.248;2022-08-21T03:14:38;17.90;99.90
16781;DHT22;8507;50.056;8.248;2022-08-21T03:17:04;17.80;99.90
16781;DHT22;8507;50.056;8.248;2022-08-21T03:19:30;17.70;99.90
16781;DHT22;8507;50.056;8.248;2022-08-21T03:21:56;17.60;99.90
16781;DHT22;8507;50.056;8.248;2022-08-21T03:24:21;17.50;99.90
16781;DHT22;8507;50.056;8.248;2022-08-21T03:26:47;17.50;99.90
16781;DHT22;8507;50.056;8.248;2022-08-21T03:29:12;17.50;99.90
16781;DHT22;8507;50.056;8.248;2022-08-21T03:31:38;17.40;99.90
16781;DHT22;8507;50.056;8.248;2022-08-21T03:34:03;17.40;99.90
16781;DHT22;8507;50.056;8.248;2022-08-21T03:36:29;17.50;99.90
16781;DHT22;8507;50.056;8.248;2022-08-21T03:38:54;17.40;99.90
16781;DHT22;8507;50.056;8.248;2022-08-21T03:41:20;17.40;99.90
16781;DHT22;8507;50.056;8.248;2022-08-21T03:43:45;17.40;99.90
16781;DHT22;8507;50.056;8.248;2022-08-21T03:46:11;17.40;99.90
16781;DHT22;8507;50.056;8.248;2022-08-21T03:48:37;17.40;99.90
16781;DHT22;8507;50.056;8.248;2022-08-21T03:51:03;17.50;99.90
16781;DHT22;8507;50.056;8.248;2022-08-21T03:53:29;17.40;99.90
16781;DHT22;8507;50.056;8.248;2022-08-21T03:55:55;17.50;99.90
16781;DHT22;8507;50.056;8.248;2022-08-21T03:58:24;17.50;99.90
16781;DHT22;8507;50.056;8.248;2022-08-21T04:00:52;17.50;99.90
16781;DHT22;8507;50.056;8.248;2022-08-21T04:03:19;17.50;99.90
16781;DHT22;8507;50.056;8.248;2022-08-21T04:05:45;17.60;99.90
16781;DHT22;8507;50.056;8.248;2022-08-21T04:08:12;17.50;99.90
16781;DHT22;8507;50.056;8.248;2022-08-21T04:10:39;17.50;99.90
16781;DHT22;8507;50.056;8.248;2022-08-21T04:13:06;17.50;99.90
16781;DHT22;8507;50.056;8.248;2022-08-21T04:15:33;17.40;99.90
16781;DHT22;8507;50.056;8.248;2022-08-21T04:17:58;17.40;99.90
16781;DHT22;8507;50.056;8.248;2022-08-21T04:20:24;17.40;99.90
16781;DHT22;8507;50.056;8.248;2022-08-21T04:22:50;17.40;99.90
16781;DHT22;8507;50.056;8.248;2022-08-21T04:25:18;17.40;99.90
16781;DHT22;8507;50.056;8.248;2022-08-21T04:27:44;17.30;99.90
16781;DHT22;8507;50.056;8.248;2022-08-21T04:30:11;17.40;99.90
16781;DHT22;8507;50.056;8.248;2022-08-21T04:32:37;17.30;99.90
16781;DHT22;8507;50.056;8.248;2022-08-21T04:35:06;17.40;99.90
16781;DHT22;8507;50.056;8.248;2022-08-21T04:37:32;17.40;99.90
16781;DHT22;8507;50.056;8.248;2022-08-21T04:39:58;17.50;99.90
16781;DHT22;8507;50.056;8.248;2022-08-21T04:42:27;17.50;99.90
16781;DHT22;8507;50.056;8.248;2022-08-21T04:44:54;17.50;99.90
16781;DHT22;8507;50.056;8.248;2022-08-21T04:47:20;17.60;99.90
16781;DHT22;8507;50.056;8.248;2022-08-21T04:49:46;17.60;99.90
16781;DHT22;8507;50.056;8.248;2022-08-21T04:52:13;17.70;99.90
16781;DHT22;8507;50.056;8.248;2022-08-21T04:54:42;17.70;99.90
16781;DHT22;8507;50.056;8.248;2022-08-21T04:57:09;17.80;99.90
16781;DHT22;8507;50.056;8.248;2022-08-21T04:59:40;17.80;99.90
16781;DHT22;8507;50.056;8.248;2022-08-21T05:02:08;17.90;99.90
16781;DHT22;8507;50.056;8.248;2022-08-21T05:04:37;17.90;99.90
16781;DHT22;8507;50.056;8.248;2022-08-21T05:07:05;18.00;99.90
16781;DHT22;8507;50.056;8.248;2022-08-21T05:09:32;18.00;99.90
16781;DHT22;8507;50.056;8.248;2022-08-21T05:11:58;18.00;99.90
16781;DHT22;8507;50.056;8.248;2022-08-21T05:14:25;18.10;99.90
16781;DHT22;8507;50.056;8.248;2022-08-21T05:16:52;18.20;99.90
16781;DHT22;8507;50.056;8.248;2022-08-21T05:19:18;18.20;99.90
16781;DHT22;8507;50.056;8.248;2022-08-21T05:21:45;18.30;99.90
16781;DHT22;8507;50.056;8.248;2022-08-21T05:24:12;18.30;99.90
16781;DHT22;8507;50.056;8.248;2022-08-21T05:26:38;18.30;99.90
16781;DHT22;8507;50.056;8.248;2022-08-21T05:29:04;18.40;99.90
16781;DHT22;8507;50.056;8.248;2022-08-21T05:31:30;18.40;99.90
16781;DHT22;8507;50.056;8.248;2022-08-21T05:33:56;18.50;99.90
16781;DHT22;8507;50.056;8.248;2022-08-21T05:36:22;18.50;99.90
16781;DHT22;8507;50.056;8.248;2022-08-21T05:38:47;18.50;99.90
16781;DHT22;8507;50.056;8.248;2022-08-21T05:41:13;18.50;99.90
16781;DHT22;8507;50.056;8.248;2022-08-21T05:43:39;18.50;99.90
16781;DHT22;8507;50.056;8.248;2022-08-21T05:46:06;18.50;99.90
16781;DHT22;8507;50.056;8.248;2022-08-21T05:48:33;18.50;99.90
16781;DHT22;8507;50.056;8.248;2022-08-21T05:51:04;18.50;99.90
16781;DHT22;8507;50.056;8.248;2022-08-21T05:53:30;18.40;99.90
16781;DHT22;8507;50.056;8.248;2022-08-21T05:55:56;18.50;99.90
16781;DHT22;8507;50.056;8.248;2022-08-21T05:58:22;18.60;99.90
16781;DHT22;8507;50.056;8.248;2022-08-21T06:00:51;18.60;99.90
16781;DHT22;8507;50.056;8.248;2022-08-21T06:03:21;18.70;99.90
16781;DHT22;8507;50.056;8.248;2022-08-21T06:05:47;18.60;99.90
16781;DHT22;8507;50.056;8.248;2022-08-21T06:08:14;18.70;99.90
16781;DHT22;8507;50.056;8.248;2022-08-21T06:10:41;18.80;99.90
16781;DHT22;8507;50.056;8.248;2022-08-21T06:13:06;18.80;99.90
16781;DHT22;8507;50.056;8.248;2022-08-21T06:15:32;19.00;99.90
16781;DHT22;8507;50.056;8.248;2022-08-21T06:17:58;19.00;99.90
16781;DHT22;8507;50.056;8.248;2022-08-21T06:20:23;19.10;99.90
16781;DHT22;8507;50.056;8.248;2022-08-21T06:22:49;19.20;99.90
16781;DHT22;8507;50.056;8.248;2022-08-21T06:25:14;19.30;99.90
16781;DHT22;8507;50.056;8.248;2022-08-21T06:27:40;19.30;99.90
16781;DHT22;8507;50.056;8.248;2022-08-21T06:30:06;19.40;99.90
16781;DHT22;8507;50.056;8.248;2022-08-21T06:32:33;19.60;99.90
16781;DHT22;8507;50.056;8.248;2022-08-21T06:34:58;19.70;99.90
16781;DHT22;8507;50.056;8.248;2022-08-21T06:37:24;19.80;99.90
16781;DHT22;8507;50.056;8.248;2022-08-21T06:39:49;19.90;99.90
16781;DHT22;8507;50.056;8.248;2022-08-21T06:42:16;20.10;99.90
16781;DHT22;8507;50.056;8.248;2022-08-21T06:44:42;20.20;99.90
16781;DHT22;8507;50.056;8.248;2022-08-21T06:47:08;20.30;99.90
16781;DHT22;8507;50.056;8.248;2022-08-21T06:49:34;20.50;99.90
16781;DHT22;8507;50.056;8.248;2022-08-21T06:52:00;20.70;99.90
16781;DHT22;8507;50.056;8.248;2022-08-21T06:54:25;20.90;99.90
16781;DHT22;8507;50.056;8.248;2022-08-21T06:56:51;21.00;99.90
16781;DHT22;8507;50.056;8.248;2022-08-21T06:59:17;21.10;99.90
16781;DHT22;8507;50.056;8.248;2022-08-21T07:01:42;21.10;99.90
16781;DHT22;8507;50.056;8.248;2022-08-21T07:04:08;21.40;99.90
16781;DHT22;8507;50.056;8.248;2022-08-21T07:06:34;21.40;99.90
16781;DHT22;8507;50.056;8.248;2022-08-21T07:09:00;21.60;99.90
16781;DHT22;8507;50.056;8.248;2022-08-21T07:11:26;21.70;99.90
16781;DHT22;8507;50.056;8.248;2022-08-21T07:13:52;21.60;99.90
16781;DHT22;8507;50.056;8.248;2022-08-21T07:16:20;21.60;99.90
16781;DHT22;8507;50.056;8.248;2022-08-21T07:18:46;22.00;99.90
16781;DHT22;8507;50.056;8.248;2022-08-21T07:21:11;22.20;99.90
16781;DHT22;8507;50.056;8.248;2022-08-21T07:23:44;22.30;99.90
16781;DHT22;8507;50.056;8.248;2022-08-21T07:26:11;22.60;99.90
16781;DHT22;8507;50.056;8.248;2022-08-21T07:28:36;22.90;99.90
16781;DHT22;8507;50.056;8.248;2022-08-21T07:31:03;23.00;99.90
16781;DHT22;8507;50.056;8.248;2022-08-21T07:33:30;23.10;99.90
16781;DHT22;8507;50.056;8.248;2022-08-21T07:35:56;23.30;99.90
16781;DHT22;8507;50.056;8.248;2022-08-21T07:38:23;23.40;99.90
16781;DHT22;8507;50.056;8.248;2022-08-21T07:40:49;23.60;99.90
16781;DHT22;8507;50.056;8.248;2022-08-21T07:43:15;23.70;99.90
16781;DHT22;8507;50.056;8.248;2022-08-21T07:45:43;23.90;99.90
16781;DHT22;8507;50.056;8.248;2022-08-21T07:48:08;24.10;99.90
16781;DHT22;8507;50.056;8.248;2022-08-21T07:50:35;24.20;99.90
16781;DHT22;8507;50.056;8.248;2022-08-21T07:53:00;24.10;99.90
16781;DHT22;8507;50.056;8.248;2022-08-21T07:55:26;24.20;99.90
16781;DHT22;8507;50.056;8.248;2022-08-21T07:57:52;24.30;99.90
16781;DHT22;8507;50.056;8.248;2022-08-21T08:00:22;24.40;99.90
16781;DHT22;8507;50.056;8.248;2022-08-21T08:02:50;24.40;99.90
16781;DHT22;8507;50.056;8.248;2022-08-21T08:05:18;24.30;99.90
16781;DHT22;8507;50.056;8.248;2022-08-21T08:07:44;24.50;99.90
16781;DHT22;8507;50.056;8.248;2022-08-21T08:10:10;24.60;99.90
16781;DHT22;8507;50.056;8.248;2022-08-21T08:12:37;24.80;99.90
16781;DHT22;8507;50.056;8.248;2022-08-21T08:15:04;24.90;99.90
16781;DHT22;8507;50.056;8.248;2022-08-21T08:17:30;25.30;99.90
16781;DHT22;8507;50.056;8.248;2022-08-21T08:19:57;25.30;99.90
16781;DHT22;8507;50.056;8.248;2022-08-21T08:22:24;25.40;99.90
16781;DHT22;8507;50.056;8.248;2022-08-21T08:24:51;25.50;99.90
16781;DHT22;8507;50.056;8.248;2022-08-21T08:27:17;25.70;99.90
16781;DHT22;8507;50.056;8.248;2022-08-21T08:29:44;25.70;99.90
16781;DHT22;8507;50.056;8.248;2022-08-21T08:32:09;25.70;99.90
16781;DHT22;8507;50.056;8.248;2022-08-21T08:34:37;25.80;99.90
16781;DHT22;8507;50.056;8.248;2022-08-21T08:37:04;26.00;99.90
16781;DHT22;8507;50.056;8.248;2022-08-21T08:39:31;26.20;99.90
16781;DHT22;8507;50.056;8.248;2022-08-21T08:42:07;26.20;99.90
16781;DHT22;8507;50.056;8.248;2022-08-21T08:44:35;26.40;99.90
16781;DHT22;8507;50.056;8.248;2022-08-21T08:47:01;26.50;99.90
16781;DHT22;8507;50.056;8.248;2022-08-21T08:49:33;26.40;99.90
16781;DHT22;8507;50.056;8.248;2022-08-21T08:52:05;26.50;99.90
16781;DHT22;8507;50.056;8.248;2022-08-21T08:54:39;26.60;99.90
16781;DHT22;8507;50.056;8.248;2022-08-21T08:57:14;26.70;99.90
16781;DHT22;8507;50.056;8.248;2022-08-21T08:59:44;26.60;99.90
16781;DHT22;8507;50.056;8.248;2022-08-21T09:02:13;26.80;99.90
16781;DHT22;8507;50.056;8.248;2022-08-21T09:04:40;27.00;99.90
16781;DHT22;8507;50.056;8.248;2022-08-21T09:10:17;26.90;99.90
16781;DHT22;8507;50.056;8.248;2022-08-21T09:15:18;27.30;99.90
16781;DHT22;8507;50.056;8.248;2022-08-21T09:18:17;27.50;99.90
16781;DHT22;8507;50.056;8.248;2022-08-21T09:23:40;27.20;99.90
16781;DHT22;8507;50.056;8.248;2022-08-21T09:28:41;27.50;99.90
16781;DHT22;8507;50.056;8.248;2022-08-21T09:31:11;27.50;99.90
16781;DHT22;8507;50.056;8.248;2022-08-21T09:33:40;27.70;99.90
16781;DHT22;8507;50.056;8.248;2022-08-21T09:36:06;27.50;99.90
16781;DHT22;8507;50.056;8.248;2022-08-21T09:38:34;27.60;99.90
16781;DHT22;8507;50.056;8.248;2022-08-21T09:41:05;27.70;99.90
16781;DHT22;8507;50.056;8.248;2022-08-21T09:43:33;28.00;99.90
16781;DHT22;8507;50.056;8.248;2022-08-21T09:46:20;28.00;99.90
16781;DHT22;8507;50.056;8.248;2022-08-21T09:48:48;28.10;99.90
16781;DHT22;8507;50.056;8.248;2022-08-21T09:51:28;27.90;99.90
16781;DHT22;8507;50.056;8.248;2022-08-21T09:54:12;27.30;99.90
16781;DHT22;8507;50.056;8.248;2022-08-21T09:59:40;27.30;99.90
16781;DHT22;8507;50.056;8.248;2022-08-21T10:02:28;27.40;99.90
16781;DHT22;8507;50.056;8.248;2022-08-21T10:04:59;27.90;99.90
16781;DHT22;8507;50.056;8.248;2022-08-21T10:07:28;28.10;99.90
16781;DHT22;8507;50.056;8.248;2022-08-21T10:09:59;27.90;99.90
16781;DHT22;8507;50.056;8.248;2022-08-21T10:12:42;27.80;99.90
16781;DHT22;8507;50.056;8.248;2022-08-21T10:15:12;27.80;99.90
16781;DHT22;8507;50.056;8.248;2022-08-21T10:17:55;27.90;99.90
16781;DHT22;8507;50.056;8.248;2022-08-21T10:20:40;27.60;99.90
16781;DHT22;8507;50.056;8.248;2022-08-21T10:26:05;28.50;99.90
16781;DHT22;8507;50.056;8.248;2022-08-21T10:32:02;28.90;99.90
16781;DHT22;8507;50.056;8.248;2022-08-21T10:37:31;28.70;99.90
16781;DHT22;8507;50.056;8.248;2022-08-21T10:40:07;28.70;99.90
16781;DHT22;8507;50.056;8.248;2022-08-21T10:45:46;28.90;99.90
16781;DHT22;8507;50.056;8.248;2022-08-21T10:48:38;28.90;99.90
16781;DHT22;8507;50.056;8.248;2022-08-21T10:51:16;29.30;99.90
16781;DHT22;8507;50.056;8.248;2022-08-21T10:54:00;29.50;99.90
16781;DHT22;8507;50.056;8.248;2022-08-21T10:56:31;29.50;99.90
16781;DHT22;8507;50.056;8.248;2022-08-21T11:04:13;29.50;99.90
16781;DHT22;8507;50.056;8.248;2022-08-21T11:06:59;29.60;99.90
16781;DHT22;8507;50.056;8.248;2022-08-21T11:09:26;29.50;99.90
16781;DHT22;8507;50.056;8.248;2022-08-21T11:11:57;29.40;99.90
16781;DHT22;8507;50.056;8.248;2022-08-21T11:14:53;29.10;99.90
16781;DHT22;8507;50.056;8.248;2022-08-21T11:17:24;29.10;99.90
16781;DHT22;8507;50.056;8.248;2022-08-21T11:20:14;29.20;99.90
16781;DHT22;8507;50.056;8.248;2022-08-21T11:22:49;29.50;99.90
16781;DHT22;8507;50.056;8.248;2022-08-21T11:25:23;29.30;99.90
16781;DHT22;8507;50.056;8.248;2022-08-21T11:28:00;29.10;99.90
16781;DHT22;8507;50.056;8.248;2022-08-21T11:30:33;29.20;99.90
16781;DHT22;8507;50.056;8.248;2022-08-21T11:33:34;28.70;99.90
16781;DHT22;8507;50.056;8.248;2022-08-21T11:36:19;28.00;99.90
16781;DHT22;8507;50.056;8.248;2022-08-21T11:41:30;27.90;99.90
16781;DHT22;8507;50.056;8.248;2022-08-21T11:46:48;28.60;99.90
16781;DHT22;8507;50.056;8.248;2022-08-21T11:49:33;29.10;99.90
16781;DHT22;8507;50.056;8.248;2022-08-21T11:54:44;29.60;99.90
16781;DHT22;8507;50.056;8.248;2022-08-21T11:57:30;29.80;99.90
16781;DHT22;8507;50.056;8.248;2022-08-21T12:00:13;29.50;99.90
16781;DHT22;8507;50.056;8.248;2022-08-21T12:02:45;29.80;99.90
16781;DHT22;8507;50.056;8.248;2022-08-21T12:08:00;29.70;99.90
16781;DHT22;8507;50.056;8.248;2022-08-21T12:10:33;29.90;99.90
16781;DHT22;8507;50.056;8.248;2022-08-21T12:13:52;29.50;99.90
16781;DHT22;8507;50.056;8.248;2022-08-21T12:16:06;29.00;99.90
16781;DHT22;8507;50.056;8.248;2022-08-21T12:18:32;29.10;99.90
16781;DHT22;8507;50.056;8.248;2022-08-21T12:26:50;29.70;99.90
16781;DHT22;8507;50.056;8.248;2022-08-21T12:34:23;30.20;99.90
16781;DHT22;8507;50.056;8.248;2022-08-21T12:36:57;30.20;99.90
16781;DHT22;8507;50.056;8.248;2022-08-21T12:39:26;30.20;99.90
16781;DHT22;8507;50.056;8.248;2022-08-21T12:42:20;30.40;99.90
16781;DHT22;8507;50.056;8.248;2022-08-21T12:44:54;30.40;99.90
16781;DHT22;8507;50.056;8.248;2022-08-21T12:47:58;30.50;99.90
16781;DHT22;8507;50.056;8.248;2022-08-21T12:50:36;30.70;99.90
16781;DHT22;8507;50.056;8.248;2022-08-21T12:55:47;31.00;99.90
16781;DHT22;8507;50.056;8.248;2022-08-21T12:58:21;31.10;99.90
16781;DHT22;8507;50.056;8.248;2022-08-21T13:01:06;31.40;99.90
16781;DHT22;8507;50.056;8.248;2022-08-21T13:03:35;31.50;99.90
16781;DHT22;8507;50.056;8.248;2022-08-21T13:06:03;31.60;99.90
16781;DHT22;8507;50.056;8.248;2022-08-21T13:08:29;31.60;99.90
16781;DHT22;8507;50.056;8.248;2022-08-21T13:11:05;31.60;99.90
16781;DHT22;8507;50.056;8.248;2022-08-21T13:13:31;31.70;99.90
16781;DHT22;8507;50.056;8.248;2022-08-21T13:16:00;31.70;99.90
16781;DHT22;8507;50.056;8.248;2022-08-21T13:18:29;31.60;99.90
16781;DHT22;8507;50.056;8.248;2022-08-21T13:21:11;31.60;99.90
16781;DHT22;8507;50.056;8.248;2022-08-21T13:23:37;31.40;99.90
16781;DHT22;8507;50.056;8.248;2022-08-21T13:28:39;31.10;99.90
16781;DHT22;8507;50.056;8.248;2022-08-21T13:31:08;31.40;99.90
16781;DHT22;8507;50.056;8.248;2022-08-21T13:33:36;31.50;99.90
16781;DHT22;8507;50.056;8.248;2022-08-21T13:36:13;31.60;99.90
16781;DHT22;8507;50.056;8.248;2022-08-21T13:38:41;31.50;99.90
16781;DHT22;8507;50.056;8.248;2022-08-21T13:43:48;31.80;99.90
16781;DHT22;8507;50.056;8.248;2022-08-21T13:46:14;31.90;99.90
16781;DHT22;8507;50.056;8.248;2022-08-21T13:48:41;31.90;99.90
16781;DHT22;8507;50.056;8.248;2022-08-21T13:51:08;32.00;99.90
16781;DHT22;8507;50.056;8.248;2022-08-21T13:53:43;31.80;99.90
16781;DHT22;8507;50.056;8.248;2022-08-21T13:56:41;31.80;99.90
16781;DHT22;8507;50.056;8.248;2022-08-21T13:59:07;31.90;99.90
16781;DHT22;8507;50.056;8.248;2022-08-21T14:01:50;31.90;99.90
16781;DHT22;8507;50.056;8.248;2022-08-21T14:04:23;31.80;99.90
16781;DHT22;8507;50.056;8.248;2022-08-21T14:06:50;31.50;99.90
16781;DHT22;8507;50.056;8.248;2022-08-21T14:09:30;30.60;99.90
16781;DHT22;8507;50.056;8.248;2022-08-21T14:11:58;29.80;99.90
16781;DHT22;8507;50.056;8.248;2022-08-21T14:14:29;30.00;99.90
16781;DHT22;8507;50.056;8.248;2022-08-21T14:17:05;30.40;99.90
16781;DHT22;8507;50.056;8.248;2022-08-21T14:19:43;30.70;99.90
16781;DHT22;8507;50.056;8.248;2022-08-21T14:25:05;31.30;99.90
16781;DHT22;8507;50.056;8.248;2022-08-21T14:27:32;31.00;99.90
16781;DHT22;8507;50.056;8.248;2022-08-21T14:30:01;31.00;99.90
16781;DHT22;8507;50.056;8.248;2022-08-21T14:32:29;31.10;99.90
16781;DHT22;8507;50.056;8.248;2022-08-21T14:34:56;31.10;99.90
16781;DHT22;8507;50.056;8.248;2022-08-21T14:37:22;31.10;99.90
16781;DHT22;8507;50.056;8.248;2022-08-21T14:39:48;31.10;99.90
16781;DHT22;8507;50.056;8.248;2022-08-21T14:42:14;31.10;99.90
16781;DHT22;8507;50.056;8.248;2022-08-21T14:44:39;30.90;99.90
16781;DHT22;8507;50.056;8.248;2022-08-21T14:47:05;30.80;99.90
16781;DHT22;8507;50.056;8.248;2022-08-21T14:49:30;30.70;99.90
16781;DHT22;8507;50.056;8.248;2022-08-21T14:51:57;30.60;99.90
16781;DHT22;8507;50.056;8.248;2022-08-21T14:54:27;30.60;99.90
16781;DHT22;8507;50.056;8.248;2022-08-21T14:56:53;30.60;99.90
16781;DHT22;8507;50.056;8.248;2022-08-21T14:59:20;30.60;99.90
16781;DHT22;8507;50.056;8.248;2022-08-21T15:01:46;30.40;99.90
16781;DHT22;8507;50.056;8.248;2022-08-21T15:04:12;30.10;99.90
16781;DHT22;8507;50.056;8.248;2022-08-21T15:06:38;30.10;99.90
16781;DHT22;8507;50.056;8.248;2022-08-21T15:09:03;30.30;99.90
16781;DHT22;8507;50.056;8.248;2022-08-21T15:11:32;30.40;99.90
16781;DHT22;8507;50.056;8.248;2022-08-21T15:14:00;30.50;99.90
16781;DHT22;8507;50.056;8.248;2022-08-21T15:16:28;30.20;99.90
16781;DHT22;8507;50.056;8.248;2022-08-21T15:18:55;30.10;99.90
16781;DHT22;8507;50.056;8.248;2022-08-21T15:21:21;30.10;99.90
16781;DHT22;8507;50.056;8.248;2022-08-21T15:23:46;30.10;99.90
16781;DHT22;8507;50.056;8.248;2022-08-21T15:26:12;29.90;99.90
16781;DHT22;8507;50.056;8.248;2022-08-21T15:28:38;29.70;99.80
16781;DHT22;8507;50.056;8.248;2022-08-21T15:31:04;29.40;99.90
16781;DHT22;8507;50.056;8.248;2022-08-21T15:33:30;29.30;99.90
16781;DHT22;8507;50.056;8.248;2022-08-21T15:35:56;29.20;99.90
16781;DHT22;8507;50.056;8.248;2022-08-21T15:38:22;29.00;99.90
16781;DHT22;8507;50.056;8.248;2022-08-21T15:40:48;29.10;99.90
16781;DHT22;8507;50.056;8.248;2022-08-21T15:45:46;29.40;99.90
16781;DHT22;8507;50.056;8.248;2022-08-21T15:48:12;29.80;99.90
16781;DHT22;8507;50.056;8.248;2022-08-21T15:50:37;30.00;99.70
16781;DHT22;8507;50.056;8.248;2022-08-21T15:53:03;30.20;99.40
16781;DHT22;8507;50.056;8.248;2022-08-21T15:55:29;30.20;99.20
16781;DHT22;8507;50.056;8.248;2022-08-21T15:57:54;29.80;98.90
16781;DHT22;8507;50.056;8.248;2022-08-21T16:00:22;29.90;98.90
16781;DHT22;8507;50.056;8.248;2022-08-21T16:02:52;30.00;99.10
16781;DHT22;8507;50.056;8.248;2022-08-21T16:05:19;30.10;98.90
16781;DHT22;8507;50.056;8.248;2022-08-21T16:07:45;30.10;98.80
16781;DHT22;8507;50.056;8.248;2022-08-21T16:10:12;30.10;98.70
16781;DHT22;8507;50.056;8.248;2022-08-21T16:12:41;30.00;98.70
16781;DHT22;8507;50.056;8.248;2022-08-21T16:15:09;29.70;98.90
16781;DHT22;8507;50.056;8.248;2022-08-21T16:17:37;29.40;98.90
16781;DHT22;8507;50.056;8.248;2022-08-21T16:20:08;28.90;99.20
16781;DHT22;8507;50.056;8.248;2022-08-21T16:22:34;28.80;99.30
16781;DHT22;8507;50.056;8.248;2022-08-21T16:25:00;28.80;99.50
16781;DHT22;8507;50.056;8.248;2022-08-21T16:27:26;28.80;99.30
16781;DHT22;8507;50.056;8.248;2022-08-21T16:29:52;28.70;99.20
16781;DHT22;8507;50.056;8.248;2022-08-21T16:32:18;28.70;99.20
16781;DHT22;8507;50.056;8.248;2022-08-21T16:34:47;28.70;99.30
16781;DHT22;8507;50.056;8.248;2022-08-21T16:37:14;28.40;98.90
16781;DHT22;8507;50.056;8.248;2022-08-21T16:39:40;28.40;99.10
16781;DHT22;8507;50.056;8.248;2022-08-21T16:42:06;28.30;99.30
16781;DHT22;8507;50.056;8.248;2022-08-21T16:44:32;28.30;99.10
16781;DHT22;8507;50.056;8.248;2022-08-21T16:47:01;28.30;99.20
16781;DHT22;8507;50.056;8.248;2022-08-21T16:49:27;28.20;99.60
16781;DHT22;8507;50.056;8.248;2022-08-21T16:51:52;28.20;99.70
16781;DHT22;8507;50.056;8.248;2022-08-21T16:54:18;28.10;99.40
16781;DHT22;8507;50.056;8.248;2022-08-21T16:56:44;28.00;99.40
16781;DHT22;8507;50.056;8.248;2022-08-21T16:59:11;28.00;99.50
16781;DHT22;8507;50.056;8.248;2022-08-21T17:01:38;27.90;99.30